sensor_id;sensor_type;location;lat;lon;timestamp;pressure;altitude;pressure_sealevel;temperature;humidity
76847;BME280;65813;49.546;8.644;2023-03-01T05:18:18;101490.16;;;0.08;65.35
76847;BME280;65813;49.546;8.644;2023-03-01T05:22:18;101484.84;;;0.17;64.79
76847;BME280;65813;49.546;8.644;2023-03-01T05:26:19;101482.16;;;0.20;64.96
76847;BME280;65813;49.546;8.644;2023-03-01T05:30:21;101489.28;;;0.09;65.16
76847;BME280;65813;49.546;8.644;2023-03-01T05:34:33;101488.25;;;0.22;65.13
76847;BME280;65813;49.546;8.644;2023-03-01T05:38:34;101485.78;;;0.10;64.31
76847;BME280;65813;49.546;8.644;2023-03-01T05:42:34;101484.56;;;0.35;64.76
76847;BME280;65813;49.546;8.644;2023-03-01T05:46:34;101489.88;;;0.29;63.17
76847;BME280;65813;49.546;8.644;2023-03-01T05:50:37;101491.53;;;0.36;64.24
76847;BME280;65813;49.546;8.644;2023-03-01T05:54:38;101485.34;;;0.41;62.07
76847;BME280;65813;49.546;8.644;2023-03-01T05:58:39;101491.78;;;0.77;63.00
76847;BME280;65813;49.546;8.644;2023-03-01T06:02:40;101492.00;;;0.65;63.25
76847;BME280;65813;49.546;8.644;2023-03-01T06:06:41;101481.53;;;0.64;63.22
76847;BME280;65813;49.546;8.644;2023-03-01T06:10:41;101486.88;;;0.58;62.07
76847;BME280;65813;49.546;8.644;2023-03-01T06:14:41;101486.88;;;0.58;62.41
76847;BME280;65813;49.546;8.644;2023-03-01T06:18:42;101484.16;;;0.64;62.62
76847;BME280;65813;49.546;8.644;2023-03-01T06:22:43;101484.19;;;0.61;62.96
76847;BME280;65813;49.546;8.644;2023-03-01T06:26:43;101479.78;;;0.64;61.59
76847;BME280;65813;49.546;8.644;2023-03-01T06:30:44;101479.72;;;0.66;61.97
76847;BME280;65813;49.546;8.644;2023-03-01T06:34:44;101485.97;;;1.14;62.12
76847;BME280;65813;49.546;8.644;2023-03-01T06:38:45;101479.28;;;0.94;60.81
76847;BME280;65813;49.546;8.644;2023-03-01T06:42:48;101481.84;;;0.97;60.97
76847;BME280;65813;49.546;8.644;2023-03-01T06:46:51;101477.13;;;1.18;61.16
76847;BME280;65813;49.546;8.644;2023-03-01T06:50:51;101471.88;;;1.19;60.80
76847;BME280;65813;49.546;8.644;2023-03-01T06:54:52;101476.19;;;1.22;60.77
76847;BME280;65813;49.546;8.644;2023-03-01T06:58:52;101476.00;;;1.34;60.04
76847;BME280;65813;49.546;8.644;2023-03-01T07:02:53;101465.84;;;1.60;59.41
76847;BME280;65813;49.546;8.644;2023-03-01T07:06:53;101463.09;;;1.66;58.68
76847;BME280;65813;49.546;8.644;2023-03-01T07:10:58;101456.56;;;1.87;59.39
76847;BME280;65813;49.546;8.644;2023-03-01T07:14:59;101458.97;;;1.97;56.84
76847;BME280;65813;49.546;8.644;2023-03-01T07:18:59;101461.28;;;2.11;58.20
76847;BME280;65813;49.546;8.644;2023-03-01T07:22:59;101449.75;;;2.18;57.44
76847;BME280;65813;49.546;8.644;2023-03-01T07:27:00;101452.38;;;2.20;56.95
76847;BME280;65813;49.546;8.644;2023-03-01T07:31:04;101451.75;;;2.45;56.96
76847;BME280;65813;49.546;8.644;2023-03-01T07:35:05;101436.09;;;2.41;55.93
76847;BME280;65813;49.546;8.644;2023-03-01T07:39:05;101445.59;;;2.48;56.39
76847;BME280;65813;49.546;8.644;2023-03-01T07:43:06;101435.56;;;2.64;56.60
76847;BME280;65813;49.546;8.644;2023-03-01T07:47:06;101436.34;;;2.67;55.57
76847;BME280;65813;49.546;8.644;2023-03-01T07:51:07;101433.47;;;2.78;56.29
76847;BME280;65813;49.546;8.644;2023-03-01T07:55:08;101440.31;;;2.85;55.55
76847;BME280;65813;49.546;8.644;2023-03-01T07:59:08;101427.03;;;2.89;55.11
76847;BME280;65813;49.546;8.644;2023-03-01T08:03:08;101424.25;;;2.95;54.85
76847;BME280;65813;49.546;8.644;2023-03-01T08:07:09;101416.09;;;3.04;54.10
76847;BME280;65813;49.546;8.644;2023-03-01T08:11:12;101418.72;;;3.06;54.19
76847;BME280;65813;49.546;8.644;2023-03-01T08:15:13;101414.78;;;3.21;54.27
76847;BME280;65813;49.546;8.644;2023-03-01T08:19:13;101408.34;;;3.32;53.07
76847;BME280;65813;49.546;8.644;2023-03-01T08:23:13;101399.56;;;3.32;52.58
76847;BME280;65813;49.546;8.644;2023-03-01T08:27:15;101396.34;;;3.22;53.29
76847;BME280;65813;49.546;8.644;2023-03-01T08:35:17;101413.31;;;3.11;51.99
76847;BME280;65813;49.546;8.644;2023-03-01T08:39:19;101412.41;;;3.12;52.57
76847;BME280;65813;49.546;8.644;2023-03-01T08:43:20;101401.84;;;3.13;52.71
76847;BME280;65813;49.546;8.644;2023-03-01T08:47:20;101391.06;;;3.22;52.91
76847;BME280;65813;49.546;8.644;2023-03-01T08:51:21;101392.81;;;3.23;51.99
76847;BME280;65813;49.546;8.644;2023-03-01T08:55:22;101381.81;;;3.40;52.91
76847;BME280;65813;49.546;8.644;2023-03-01T08:59:22;101381.00;;;3.38;51.67
76847;BME280;65813;49.546;8.644;2023-03-01T09:03:23;101371.41;;;3.35;52.77
76847;BME280;65813;49.546;8.644;2023-03-01T09:07:26;101368.47;;;3.46;52.53
76847;BME280;65813;49.546;8.644;2023-03-01T09:11:28;101377.03;;;3.52;51.83
76847;BME280;65813;49.546;8.644;2023-03-01T09:15:29;101367.47;;;3.50;51.43
76847;BME280;65813;49.546;8.644;2023-03-01T09:19:29;101354.97;;;3.58;52.75
76847;BME280;65813;49.546;8.644;2023-03-01T09:23:36;101358.22;;;3.66;50.81
76847;BME280;65813;49.546;8.644;2023-03-01T09:27:38;101354.03;;;3.59;50.86
76847;BME280;65813;49.546;8.644;2023-03-01T09:31:39;101354.28;;;3.79;50.82
76847;BME280;65813;49.546;8.644;2023-03-01T09:35:40;101349.38;;;3.69;51.77
76847;BME280;65813;49.546;8.644;2023-03-01T09:39:46;101344.78;;;3.75;51.14
76847;BME280;65813;49.546;8.644;2023-03-01T09:43:53;101346.91;;;3.92;50.78
76847;BME280;65813;49.546;8.644;2023-03-01T09:47:58;101354.38;;;4.05;49.00
76847;BME280;65813;49.546;8.644;2023-03-01T09:56:32;101350.88;;;4.33;48.39
76847;BME280;65813;49.546;8.644;2023-03-01T10:00:44;101341.84;;;4.40;49.72
76847;BME280;65813;49.546;8.644;2023-03-01T10:04:49;101337.97;;;4.76;47.84
76847;BME280;65813;49.546;8.644;2023-03-01T10:12:56;101340.09;;;4.91;47.03
76847;BME280;65813;49.546;8.644;2023-03-01T10:17:08;101320.16;;;5.07;46.71
76847;BME280;65813;49.546;8.644;2023-03-01T10:21:18;101329.06;;;5.28;46.62
76847;BME280;65813;49.546;8.644;2023-03-01T10:25:31;101325.91;;;5.42;45.83
76847;BME280;65813;49.546;8.644;2023-03-01T10:29:58;101312.59;;;5.68;45.63
76847;BME280;65813;49.546;8.644;2023-03-01T10:34:00;101307.03;;;5.76;45.07
76847;BME280;65813;49.546;8.644;2023-03-01T10:38:09;101291.94;;;6.01;44.88
76847;BME280;65813;49.546;8.644;2023-03-01T10:42:31;101288.38;;;6.24;44.57
76847;BME280;65813;49.546;8.644;2023-03-01T10:46:35;101282.75;;;6.31;44.37
76847;BME280;65813;49.546;8.644;2023-03-01T10:50:37;101263.78;;;6.42;44.04
76847;BME280;65813;49.546;8.644;2023-03-01T10:54:39;101260.69;;;6.73;44.56
76847;BME280;65813;49.546;8.644;2023-03-01T10:59:00;101249.16;;;6.94;44.47
76847;BME280;65813;49.546;8.644;2023-03-01T11:03:10;101248.09;;;6.98;42.81
76847;BME280;65813;49.546;8.644;2023-03-01T11:07:11;101236.41;;;6.63;43.02
76847;BME280;65813;49.546;8.644;2023-03-01T11:15:24;101223.72;;;7.29;43.49
76847;BME280;65813;49.546;8.644;2023-03-01T11:19:25;101225.91;;;7.38;42.87
76847;BME280;65813;49.546;8.644;2023-03-01T11:23:27;101228.38;;;7.24;43.79
76847;BME280;65813;49.546;8.644;2023-03-01T11:27:32;101225.25;;;7.34;42.76
76847;BME280;65813;49.546;8.644;2023-03-01T11:31:33;101205.78;;;7.52;42.19
76847;BME280;65813;49.546;8.644;2023-03-01T11:35:37;101214.66;;;7.70;41.90
76847;BME280;65813;49.546;8.644;2023-03-01T11:39:47;101197.13;;;7.49;42.26
76847;BME280;65813;49.546;8.644;2023-03-01T11:44:16;101203.66;;;7.42;42.56
76847;BME280;65813;49.546;8.644;2023-03-01T11:52:52;101180.47;;;8.17;41.55
76847;BME280;65813;49.546;8.644;2023-03-01T11:57:00;101177.56;;;8.40;42.03
76847;BME280;65813;49.546;8.644;2023-03-01T12:18:16;101142.78;;;8.45;39.59
76847;BME280;65813;49.546;8.644;2023-03-01T12:22:38;101126.94;;;8.43;41.18
76847;BME280;65813;49.546;8.644;2023-03-01T12:27:10;101114.81;;;9.03;43.45
76847;BME280;65813;49.546;8.644;2023-03-01T12:40:15;101094.78;;;9.13;40.49
76847;BME280;65813;49.546;8.644;2023-03-01T12:52:52;101079.66;;;9.30;40.22
76847;BME280;65813;49.546;8.644;2023-03-01T12:56:56;101065.47;;;9.45;40.56
76847;BME280;65813;49.546;8.644;2023-03-01T13:09:49;101039.41;;;9.36;38.75
76847;BME280;65813;49.546;8.644;2023-03-01T13:13:52;101042.06;;;9.51;38.58
76847;BME280;65813;49.546;8.644;2023-03-01T13:22:30;101040.47;;;9.63;38.91
76847;BME280;65813;49.546;8.644;2023-03-01T13:31:09;101027.13;;;9.49;38.36
76847;BME280;65813;49.546;8.644;2023-03-01T13:39:48;101021.97;;;9.76;39.14
76847;BME280;65813;49.546;8.644;2023-03-01T13:43:48;101002.06;;;9.97;38.34
76847;BME280;65813;49.546;8.644;2023-03-01T13:47:57;101002.69;;;10.16;37.46
76847;BME280;65813;49.546;8.644;2023-03-01T13:51:58;101003.72;;;10.13;38.17
76847;BME280;65813;49.546;8.644;2023-03-01T13:56:02;101001.25;;;9.67;36.28
76847;BME280;65813;49.546;8.644;2023-03-01T14:00:03;100999.06;;;9.73;37.28
76847;BME280;65813;49.546;8.644;2023-03-01T14:04:24;100996.28;;;9.60;36.56
76847;BME280;65813;49.546;8.644;2023-03-01T14:08:27;100993.31;;;9.95;38.36
76847;BME280;65813;49.546;8.644;2023-03-01T14:17:23;100991.88;;;10.03;37.14
76847;BME280;65813;49.546;8.644;2023-03-01T14:21:29;100995.72;;;9.99;38.17
76847;BME280;65813;49.546;8.644;2023-03-01T14:25:35;100982.66;;;9.95;37.46
76847;BME280;65813;49.546;8.644;2023-03-01T14:29:38;100980.75;;;9.97;36.92
76847;BME280;65813;49.546;8.644;2023-03-01T14:33:38;100980.00;;;9.95;36.42
76847;BME280;65813;49.546;8.644;2023-03-01T14:37:41;100979.25;;;10.07;37.77
76847;BME280;65813;49.546;8.644;2023-03-01T14:41:41;100970.13;;;9.97;36.48
76847;BME280;65813;49.546;8.644;2023-03-01T14:45:47;100972.50;;;10.01;37.34
76847;BME280;65813;49.546;8.644;2023-03-01T14:49:50;100967.66;;;10.08;38.47
76847;BME280;65813;49.546;8.644;2023-03-01T14:53:53;100962.63;;;9.89;39.39
76847;BME280;65813;49.546;8.644;2023-03-01T14:57:54;100959.13;;;10.03;39.26
76847;BME280;65813;49.546;8.644;2023-03-01T15:01:57;100968.72;;;10.05;38.22
76847;BME280;65813;49.546;8.644;2023-03-01T15:05:59;100961.47;;;10.07;38.95
76847;BME280;65813;49.546;8.644;2023-03-01T15:10:00;100963.78;;;9.99;39.32
76847;BME280;65813;49.546;8.644;2023-03-01T15:14:01;100966.25;;;10.02;36.91
76847;BME280;65813;49.546;8.644;2023-03-01T15:18:13;100974.56;;;9.96;36.02
76847;BME280;65813;49.546;8.644;2023-03-01T15:22:15;100978.56;;;9.75;36.78
76847;BME280;65813;49.546;8.644;2023-03-01T15:26:30;100981.75;;;9.22;37.08
76847;BME280;65813;49.546;8.644;2023-03-01T15:30:33;100977.38;;;9.51;38.75
76847;BME280;65813;49.546;8.644;2023-03-01T15:34:44;100985.94;;;9.56;37.41
76847;BME280;65813;49.546;8.644;2023-03-01T15:38:53;100987.28;;;9.63;37.17
76847;BME280;65813;49.546;8.644;2023-03-01T15:42:54;100992.69;;;9.61;37.21
76847;BME280;65813;49.546;8.644;2023-03-01T15:46:55;100993.53;;;9.48;38.48
76847;BME280;65813;49.546;8.644;2023-03-01T15:50:58;100994.69;;;9.58;37.80
76847;BME280;65813;49.546;8.644;2023-03-01T15:55:01;100999.41;;;9.53;39.62
76847;BME280;65813;49.546;8.644;2023-03-01T15:59:02;100999.22;;;9.56;38.61
76847;BME280;65813;49.546;8.644;2023-03-01T16:03:03;100997.97;;;9.47;38.54
76847;BME280;65813;49.546;8.644;2023-03-01T16:07:03;100997.25;;;9.14;36.99
76847;BME280;65813;49.546;8.644;2023-03-01T16:11:29;100992.88;;;9.29;38.93
76847;BME280;65813;49.546;8.644;2023-03-01T16:15:32;100990.56;;;9.23;38.17
76847;BME280;65813;49.546;8.644;2023-03-01T16:19:34;100997.72;;;9.06;37.39
76847;BME280;65813;49.546;8.644;2023-03-01T16:23:34;100990.78;;;8.88;37.74
76847;BME280;65813;49.546;8.644;2023-03-01T16:27:35;101005.81;;;8.89;38.49
76847;BME280;65813;49.546;8.644;2023-03-01T16:31:35;100995.91;;;8.76;38.21
76847;BME280;65813;49.546;8.644;2023-03-01T16:35:39;100989.28;;;8.69;37.85
76847;BME280;65813;49.546;8.644;2023-03-01T16:39:40;100987.88;;;8.46;39.22
76847;BME280;65813;49.546;8.644;2023-03-01T16:43:40;100998.25;;;8.50;39.99
76847;BME280;65813;49.546;8.644;2023-03-01T16:47:41;101001.56;;;8.38;39.82
76847;BME280;65813;49.546;8.644;2023-03-01T16:51:41;101002.19;;;8.26;40.28
76847;BME280;65813;49.546;8.644;2023-03-01T16:55:41;100996.38;;;8.20;39.87
76847;BME280;65813;49.546;8.644;2023-03-01T16:59:45;100999.06;;;8.02;42.06
76847;BME280;65813;49.546;8.644;2023-03-01T17:03:46;101002.50;;;7.87;42.86
76847;BME280;65813;49.546;8.644;2023-03-01T17:07:47;100999.81;;;7.72;42.41
76847;BME280;65813;49.546;8.644;2023-03-01T17:11:48;100995.59;;;7.68;42.38
76847;BME280;65813;49.546;8.644;2023-03-01T17:15:49;100990.38;;;7.66;43.29
76847;BME280;65813;49.546;8.644;2023-03-01T17:19:49;100994.25;;;7.59;44.25
76847;BME280;65813;49.546;8.644;2023-03-01T17:23:49;101000.44;;;7.59;42.61
76847;BME280;65813;49.546;8.644;2023-03-01T17:27:54;100987.72;;;7.66;44.54
76847;BME280;65813;49.546;8.644;2023-03-01T17:31:55;100989.75;;;7.44;44.15
76847;BME280;65813;49.546;8.644;2023-03-01T17:35:56;100983.59;;;7.43;48.41
76847;BME280;65813;49.546;8.644;2023-03-01T17:39:56;100969.31;;;7.46;48.72
76847;BME280;65813;49.546;8.644;2023-03-01T17:43:57;100962.63;;;7.56;49.81
76847;BME280;65813;49.546;8.644;2023-03-01T17:47:57;100967.00;;;7.57;48.88
76847;BME280;65813;49.546;8.644;2023-03-01T17:51:58;100968.31;;;7.48;49.09
76847;BME280;65813;49.546;8.644;2023-03-01T17:56:00;100973.69;;;7.47;49.49
76847;BME280;65813;49.546;8.644;2023-03-01T18:00:01;100978.13;;;7.29;50.19
76847;BME280;65813;49.546;8.644;2023-03-01T18:04:01;100982.56;;;7.11;50.91
76847;BME280;65813;49.546;8.644;2023-03-01T18:08:02;100992.19;;;6.95;50.85
76847;BME280;65813;49.546;8.644;2023-03-01T18:12:03;100994.50;;;6.84;51.26
76847;BME280;65813;49.546;8.644;2023-03-01T18:16:05;100991.09;;;6.82;51.89
76847;BME280;65813;49.546;8.644;2023-03-01T18:20:06;101010.44;;;6.83;51.64
76847;BME280;65813;49.546;8.644;2023-03-01T18:24:07;101009.06;;;6.57;51.26
76847;BME280;65813;49.546;8.644;2023-03-01T18:28:07;101019.19;;;6.29;49.94
76847;BME280;65813;49.546;8.644;2023-03-01T18:32:07;101014.97;;;6.25;49.76
76847;BME280;65813;49.546;8.644;2023-03-01T18:36:19;101023.94;;;6.02;49.27
76847;BME280;65813;49.546;8.644;2023-03-01T18:40:20;101021.56;;;5.96;50.32
76847;BME280;65813;49.546;8.644;2023-03-01T18:44:20;101015.13;;;5.81;50.42
76847;BME280;65813;49.546;8.644;2023-03-01T18:48:20;101025.97;;;5.75;50.56
76847;BME280;65813;49.546;8.644;2023-03-01T18:52:21;101028.06;;;5.89;52.42
76847;BME280;65813;49.546;8.644;2023-03-01T18:56:21;101027.34;;;5.64;51.65
76847;BME280;65813;49.546;8.644;2023-03-01T19:00:22;101031.31;;;5.53;51.31
76847;BME280;65813;49.546;8.644;2023-03-01T19:04:22;101025.97;;;5.55;54.26
76847;BME280;65813;49.546;8.644;2023-03-01T19:08:23;101025.03;;;5.56;51.86
76847;BME280;65813;49.546;8.644;2023-03-01T19:12:23;101022.97;;;5.42;52.24
76847;BME280;65813;49.546;8.644;2023-03-01T19:16:26;101025.31;;;5.50;52.73
76847;BME280;65813;49.546;8.644;2023-03-01T19:20:27;101024.72;;;5.64;54.34
76847;BME280;65813;49.546;8.644;2023-03-01T19:24:28;101019.00;;;5.32;52.41
76847;BME280;65813;49.546;8.644;2023-03-01T19:28:29;101019.59;;;5.39;55.86
76847;BME280;65813;49.546;8.644;2023-03-01T19:32:30;101024.31;;;5.10;54.17
76847;BME280;65813;49.546;8.644;2023-03-01T19:36:31;101008.16;;;5.18;53.65
76847;BME280;65813;49.546;8.644;2023-03-01T19:40:32;101011.91;;;5.13;53.57
76847;BME280;65813;49.546;8.644;2023-03-01T19:44:32;101013.81;;;5.09;53.11
76847;BME280;65813;49.546;8.644;2023-03-01T19:48:33;101016.31;;;4.90;54.16
76847;BME280;65813;49.546;8.644;2023-03-01T19:52:33;101003.88;;;4.94;55.06
76847;BME280;65813;49.546;8.644;2023-03-01T19:56:34;101008.84;;;4.80;55.90
76847;BME280;65813;49.546;8.644;2023-03-01T20:00:34;101001.91;;;4.99;56.77
76847;BME280;65813;49.546;8.644;2023-03-01T20:04:34;101004.72;;;4.94;55.26
76847;BME280;65813;49.546;8.644;2023-03-01T20:08:35;101010.31;;;4.87;54.48
76847;BME280;65813;49.546;8.644;2023-03-01T20:12:36;101013.94;;;4.84;55.18
76847;BME280;65813;49.546;8.644;2023-03-01T20:16:42;101008.44;;;4.69;56.62
76847;BME280;65813;49.546;8.644;2023-03-01T20:20:47;101022.72;;;4.85;55.88
76847;BME280;65813;49.546;8.644;2023-03-01T20:24:48;101028.13;;;4.82;55.96
76847;BME280;65813;49.546;8.644;2023-03-01T20:28:52;101022.56;;;4.66;55.38
76847;BME280;65813;49.546;8.644;2023-03-01T20:32:52;101030.91;;;4.55;55.39
76847;BME280;65813;49.546;8.644;2023-03-01T20:36:53;101028.09;;;4.60;55.12
76847;BME280;65813;49.546;8.644;2023-03-01T20:41:10;101019.19;;;4.41;56.01
76847;BME280;65813;49.546;8.644;2023-03-01T20:45:11;101023.75;;;4.36;56.72
76847;BME280;65813;49.546;8.644;2023-03-01T20:49:11;101018.47;;;4.13;56.64
76847;BME280;65813;49.546;8.644;2023-03-01T20:53:12;101017.88;;;4.04;57.44
76847;BME280;65813;49.546;8.644;2023-03-01T20:57:12;101016.16;;;4.03;57.16
76847;BME280;65813;49.546;8.644;2023-03-01T21:01:18;101012.09;;;3.95;57.25
76847;BME280;65813;49.546;8.644;2023-03-01T21:05:19;101017.03;;;3.79;57.83
76847;BME280;65813;49.546;8.644;2023-03-01T21:09:20;101012.06;;;3.96;58.36
76847;BME280;65813;49.546;8.644;2023-03-01T21:13:21;101007.13;;;4.11;58.24
76847;BME280;65813;49.546;8.644;2023-03-01T21:17:21;101011.13;;;3.97;57.46
76847;BME280;65813;49.546;8.644;2023-03-01T21:21:22;101011.47;;;4.12;58.60
76847;BME280;65813;49.546;8.644;2023-03-01T21:25:23;100996.91;;;4.25;57.30
76847;BME280;65813;49.546;8.644;2023-03-01T21:29:23;100999.78;;;4.19;56.74
76847;BME280;65813;49.546;8.644;2023-03-01T21:33:23;100991.41;;;4.07;57.00
76847;BME280;65813;49.546;8.644;2023-03-01T21:37:24;100995.78;;;4.32;57.57
76847;BME280;65813;49.546;8.644;2023-03-01T21:41:29;100989.00;;;4.01;56.88
76847;BME280;65813;49.546;8.644;2023-03-01T21:45:30;100996.50;;;4.14;57.03
76847;BME280;65813;49.546;8.644;2023-03-01T21:49:31;100993.19;;;4.07;57.88
76847;BME280;65813;49.546;8.644;2023-03-01T21:53:33;100994.69;;;4.14;57.79
76847;BME280;65813;49.546;8.644;2023-03-01T21:57:34;100978.47;;;4.25;56.51
76847;BME280;65813;49.546;8.644;2023-03-01T22:01:43;100974.91;;;4.26;57.33
76847;BME280;65813;49.546;8.644;2023-03-01T22:05:56;100969.03;;;4.19;56.32
76847;BME280;65813;49.546;8.644;2023-03-01T22:09:56;100964.38;;;4.26;56.89
76847;BME280;65813;49.546;8.644;2023-03-01T22:13:57;100958.94;;;4.30;57.15
